createdAt,value
2023-03-10T00:00:23.582Z,0.46
2023-03-10T00:02:51.430Z,0.54
2023-03-10T00:05:21.226Z,0.54
2023-03-10T00:07:50.191Z,0.52
2023-03-10T00:10:18.770Z,0.55
2023-03-10T00:12:46.576Z,0.53
2023-03-10T00:15:15.169Z,0.52
2023-03-10T00:17:42.836Z,0.56
2023-03-10T00:20:13.347Z,0.52
2023-03-10T00:22:42.665Z,0.54
2023-03-10T00:25:12.518Z,0.53
2023-03-10T00:27:40.155Z,0.59
2023-03-10T00:30:09.309Z,0.59
2023-03-10T00:32:37.254Z,0.56
2023-03-10T00:35:05.916Z,0.55
2023-03-10T00:37:33.662Z,0.52
2023-03-10T00:40:03.960Z,0.65
2023-03-10T00:42:31.686Z,0.63
2023-03-10T00:44:59.379Z,0.61
2023-03-10T00:47:27.038Z,0.57
2023-03-10T00:49:54.830Z,0.63
2023-03-10T00:52:22.439Z,0.59
2023-03-10T00:54:51.392Z,0.55
2023-03-10T00:57:20.411Z,0.54
2023-03-10T00:59:51.690Z,0.53
2023-03-10T01:02:19.702Z,0.55
2023-03-10T01:04:47.595Z,0.52
2023-03-10T01:07:15.326Z,0.54
2023-03-10T01:09:42.967Z,0.52
2023-03-10T01:12:10.884Z,0.52
2023-03-10T01:14:40.679Z,0.52
2023-03-10T01:17:08.392Z,0.52
2023-03-10T01:19:36.061Z,0.58
2023-03-10T01:22:03.721Z,0.55
2023-03-10T01:24:31.451Z,0.57
2023-03-10T01:26:59.125Z,0.59
2023-03-10T01:29:26.806Z,0.55
2023-03-10T01:31:55.852Z,0.59
2023-03-10T01:34:23.542Z,0.63
2023-03-10T01:36:51.246Z,0.62
2023-03-10T01:39:18.901Z,0.63
2023-03-10T01:41:46.586Z,0.64
2023-03-10T01:44:16.814Z,0.75
2023-03-10T01:46:51.181Z,0.67
2023-03-10T01:49:25.772Z,0.62
2023-03-10T01:51:59.433Z,0.64
2023-03-10T01:54:31.729Z,0.65
2023-03-10T01:56:59.990Z,0.61
2023-03-10T01:59:28.814Z,0.66
2023-03-10T02:01:58.883Z,0.60
2023-03-10T02:04:36.077Z,0.59
2023-03-10T02:07:07.366Z,0.56
2023-03-10T02:09:38.547Z,0.58
2023-03-10T02:12:08.484Z,0.56
2023-03-10T02:14:36.691Z,0.56
2023-03-10T02:17:05.667Z,0.60
2023-03-10T02:19:48.468Z,0.63
2023-03-10T02:22:17.156Z,0.62
2023-03-10T02:24:50.810Z,0.55
2023-03-10T02:27:22.779Z,0.61
2023-03-10T02:29:59.713Z,0.70
2023-03-10T02:32:30.864Z,0.66
2023-03-10T02:34:58.646Z,0.68
2023-03-10T02:37:29.918Z,0.67
2023-03-10T02:39:57.986Z,0.62
2023-03-10T02:42:31.854Z,0.61
2023-03-10T02:44:59.863Z,0.64
2023-03-10T02:47:27.614Z,0.66
2023-03-10T02:49:55.277Z,0.79
2023-03-10T02:52:30.510Z,0.80
2023-03-10T02:54:58.183Z,0.73
2023-03-10T02:57:27.355Z,0.75
2023-03-10T02:59:54.983Z,0.72
2023-03-10T03:02:22.747Z,0.70
2023-03-10T03:04:50.405Z,0.68
2023-03-10T03:07:18.020Z,0.69
2023-03-10T03:09:45.912Z,0.73
2023-03-10T03:12:13.600Z,0.95
2023-03-10T03:14:42.580Z,0.94
2023-03-10T03:17:10.351Z,0.85
2023-03-10T03:19:38.064Z,0.78
2023-03-10T03:22:05.761Z,0.81
2023-03-10T03:24:33.526Z,0.76
2023-03-10T03:27:01.214Z,0.74
2023-03-10T03:29:28.951Z,0.73
2023-03-10T03:31:57.989Z,0.82
2023-03-10T03:34:25.661Z,0.75
2023-03-10T03:36:53.342Z,0.77
2023-03-10T03:39:21.020Z,0.81
2023-03-10T03:41:53.039Z,0.78
2023-03-10T03:44:20.877Z,0.75
2023-03-10T03:46:48.497Z,0.66
2023-03-10T03:49:17.587Z,0.67
2023-03-10T03:51:45.646Z,0.69
2023-03-10T03:54:13.306Z,0.70
2023-03-10T03:56:41.253Z,0.77
2023-03-10T03:59:09.012Z,0.83
2023-03-10T04:01:36.734Z,0.75
2023-03-10T04:04:04.446Z,0.72
2023-03-10T04:06:33.655Z,0.92
2023-03-10T04:09:01.395Z,0.83
2023-03-10T04:11:29.111Z,0.79
2023-03-10T04:13:56.861Z,0.78
2023-03-10T04:16:24.609Z,0.84
2023-03-10T04:18:52.386Z,0.80
2023-03-10T04:21:20.084Z,0.78
2023-03-10T04:23:49.134Z,0.73
2023-03-10T04:26:16.838Z,0.70
2023-03-10T04:28:44.539Z,0.73
2023-03-10T04:31:15.740Z,0.72
2023-03-10T04:33:43.573Z,0.73
2023-03-10T04:36:11.595Z,0.73
2023-03-10T04:38:40.020Z,0.71
2023-03-10T04:41:09.492Z,0.71
2023-03-10T04:43:38.381Z,0.77
2023-03-10T04:46:06.716Z,0.78
2023-03-10T04:48:35.071Z,0.82
2023-03-10T04:51:05.934Z,0.91
2023-03-10T04:53:34.466Z,0.84
2023-03-10T04:56:02.981Z,0.85
2023-03-10T04:58:32.479Z,0.80
2023-03-10T05:01:03.450Z,0.77
2023-03-10T05:03:31.293Z,0.78
2023-03-10T05:05:59.075Z,0.81
2023-03-10T05:08:26.729Z,0.83
2023-03-10T05:10:54.351Z,0.82
2023-03-10T05:13:22.059Z,0.88
2023-03-10T05:15:51.156Z,0.84
2023-03-10T05:18:19.494Z,0.81
2023-03-10T05:20:47.170Z,0.79
2023-03-10T05:23:14.838Z,0.79
2023-03-10T05:25:42.556Z,0.80
2023-03-10T05:28:10.204Z,0.81
2023-03-10T05:30:37.844Z,0.79
2023-03-10T05:33:06.899Z,0.85
2023-03-10T05:35:34.574Z,0.84
2023-03-10T05:38:03.366Z,0.85
2023-03-10T05:40:31.064Z,0.87
2023-03-10T05:42:58.841Z,0.88
2023-03-10T05:45:26.519Z,0.85
2023-03-10T05:47:54.133Z,0.83
2023-03-10T05:50:23.224Z,0.84
2023-03-10T05:52:51.314Z,0.85
2023-03-10T05:55:21.104Z,0.88
2023-03-10T05:57:49.105Z,0.89
2023-03-10T06:00:17.589Z,0.91
2023-03-10T06:02:45.244Z,0.91
2023-03-10T06:05:13.564Z,0.87
2023-03-10T06:07:43.073Z,0.88
2023-03-10T06:10:11.761Z,0.91
2023-03-10T06:12:39.718Z,0.94
2023-03-10T06:15:08.603Z,0.96
2023-03-10T06:17:36.280Z,0.97
2023-03-10T06:20:04.669Z,0.99
2023-03-10T06:22:32.341Z,1.02
2023-03-10T06:25:01.575Z,1.04
2023-03-10T06:27:30.785Z,1.05
2023-03-10T06:29:58.433Z,1.04
2023-03-10T06:32:26.199Z,1.06
2023-03-10T06:34:53.898Z,1.06
2023-03-10T06:37:21.722Z,1.08
2023-03-10T06:39:49.436Z,1.09
2023-03-10T06:42:18.552Z,1.13
2023-03-10T06:44:48.729Z,1.18
2023-03-10T06:47:16.784Z,1.21
2023-03-10T06:49:44.446Z,1.19
2023-03-10T06:52:12.143Z,1.16
2023-03-10T06:54:39.806Z,1.19
2023-03-10T06:57:07.518Z,1.22
2023-03-10T06:59:36.540Z,1.24
2023-03-10T07:02:04.286Z,1.23
2023-03-10T07:04:32.004Z,1.22
2023-03-10T07:06:59.749Z,1.22
2023-03-10T07:09:27.409Z,1.21
2023-03-10T07:11:55.102Z,1.22
2023-03-10T07:14:22.787Z,1.27
2023-03-10T07:16:51.835Z,1.28
2023-03-10T07:19:19.526Z,1.27
2023-03-10T07:21:47.239Z,1.28
2023-03-10T07:24:15.001Z,1.28
2023-03-10T07:26:42.896Z,1.37
2023-03-10T07:29:10.878Z,1.42
2023-03-10T07:31:38.627Z,1.41
2023-03-10T07:34:07.676Z,1.43
2023-03-10T07:36:35.399Z,1.49
2023-03-10T07:39:03.068Z,1.47
2023-03-10T07:41:30.697Z,1.47
2023-03-10T07:43:58.433Z,1.46
2023-03-10T07:46:26.195Z,1.45
2023-03-10T07:48:53.939Z,1.57
2023-03-10T07:51:23.128Z,1.60
2023-03-10T07:53:50.904Z,1.58
2023-03-10T07:56:18.518Z,1.55
2023-03-10T07:58:46.283Z,1.57
2023-03-10T08:01:17.458Z,1.62
2023-03-10T08:03:46.110Z,1.62
2023-03-10T08:06:18.293Z,1.63
2023-03-10T08:08:47.622Z,1.68
2023-03-10T08:11:15.408Z,1.74
2023-03-10T08:13:45.278Z,1.77
2023-03-10T08:16:13.166Z,1.88
2023-03-10T08:18:40.833Z,1.85
2023-03-10T08:21:09.906Z,1.85
2023-03-10T08:23:39.455Z,1.87
2023-03-10T08:26:13.371Z,1.91
2023-03-10T08:28:41.174Z,1.95
2023-03-10T08:31:10.442Z,2.00
2023-03-10T08:33:38.809Z,2.04
2023-03-10T08:36:09.179Z,2.10
2023-03-10T08:38:37.055Z,2.12
2023-03-10T08:41:14.855Z,2.13
2023-03-10T08:43:43.527Z,2.19
2023-03-10T08:46:12.500Z,2.18
2023-03-10T08:48:42.668Z,2.22
2023-03-10T08:51:14.380Z,2.24
2023-03-10T08:53:43.811Z,2.28
2023-03-10T08:56:12.905Z,2.31
2023-03-10T08:58:40.666Z,2.37
2023-03-10T09:01:08.406Z,2.47
2023-03-10T09:03:36.820Z,2.46
2023-03-10T09:06:04.975Z,2.48
2023-03-10T09:08:32.660Z,2.52
2023-03-10T09:11:00.273Z,2.55
2023-03-10T09:13:29.337Z,2.61
2023-03-10T09:15:57.067Z,2.68
2023-03-10T09:18:24.811Z,2.79
2023-03-10T09:20:52.901Z,2.91
2023-03-10T09:23:20.845Z,3.01
2023-03-10T09:25:48.533Z,3.10
2023-03-10T09:28:18.567Z,3.14
2023-03-10T09:30:48.220Z,3.21
2023-03-10T09:33:18.172Z,3.18
2023-03-10T09:35:52.853Z,3.22
2023-03-10T09:38:30.466Z,3.22
2023-03-10T09:41:09.798Z,3.20
2023-03-10T09:43:40.246Z,3.19
2023-03-10T09:46:13.394Z,3.24
2023-03-10T09:48:51.591Z,3.33
2023-03-10T09:51:23.009Z,3.43
2023-03-10T09:53:57.863Z,3.55
2023-03-10T09:56:30.160Z,3.59
2023-03-10T09:59:00.924Z,3.66
2023-03-10T10:01:33.567Z,3.76
2023-03-10T10:04:06.472Z,3.77
2023-03-10T10:06:37.366Z,3.79
2023-03-10T10:09:09.712Z,3.84
2023-03-10T10:11:37.826Z,3.91
2023-03-10T10:14:38.410Z,3.97
2023-03-10T10:17:22.205Z,4.09
2023-03-10T10:19:51.207Z,4.22
2023-03-10T10:22:24.610Z,4.32
2023-03-10T10:25:17.999Z,4.41
2023-03-10T10:27:46.330Z,4.47
2023-03-10T10:30:28.845Z,4.53
2023-03-10T10:33:00.128Z,4.60
2023-03-10T10:35:31.129Z,4.58
2023-03-10T10:38:07.724Z,4.57
2023-03-10T10:40:37.285Z,4.56
2023-03-10T10:43:07.584Z,4.59
2023-03-10T10:45:37.248Z,4.64
2023-03-10T10:48:06.908Z,4.68
2023-03-10T10:50:36.080Z,4.70
2023-03-10T10:53:20.647Z,4.73
2023-03-10T10:55:59.716Z,4.81
2023-03-10T10:58:30.861Z,4.92
2023-03-10T11:01:01.002Z,5.06
2023-03-10T11:03:33.477Z,5.12
2023-03-10T11:06:02.935Z,5.15
2023-03-10T11:08:34.952Z,5.27
2023-03-10T11:11:08.879Z,5.33
2023-03-10T11:13:44.916Z,5.28
2023-03-10T11:16:22.770Z,5.29
2023-03-10T11:18:58.435Z,5.37
2023-03-10T11:21:29.498Z,5.44
2023-03-10T11:24:04.729Z,5.40
2023-03-10T11:26:45.622Z,5.38
2023-03-10T11:29:25.711Z,5.44
2023-03-10T11:32:00.932Z,5.39
2023-03-10T11:34:32.863Z,5.38
2023-03-10T11:37:14.288Z,5.42
2023-03-10T11:39:49.394Z,5.41
2023-03-10T11:42:27.353Z,5.34
2023-03-10T11:45:04.791Z,5.38
2023-03-10T11:47:49.150Z,5.44
2023-03-10T11:50:30.046Z,5.53
2023-03-10T11:53:03.404Z,5.48
2023-03-10T11:55:32.964Z,5.54
2023-03-10T11:58:05.112Z,5.55
2023-03-10T12:00:37.775Z,5.53
2023-03-10T12:03:16.066Z,5.48
2023-03-10T12:05:50.796Z,5.45
2023-03-10T12:08:20.011Z,5.51
2023-03-10T12:10:49.391Z,5.53
2023-03-10T12:13:24.520Z,5.56
2023-03-10T12:15:56.232Z,5.55
2023-03-10T12:18:26.690Z,5.57
2023-03-10T12:21:21.955Z,5.59
2023-03-10T12:23:51.389Z,5.67
2023-03-10T12:26:55.343Z,5.74
2023-03-10T12:29:40.446Z,5.73
2023-03-10T12:32:42.889Z,5.81
2023-03-10T12:35:37.302Z,5.96
2023-03-10T12:38:28.806Z,6.10
2023-03-10T12:40:56.822Z,6.09
2023-03-10T12:43:55.462Z,6.10
2023-03-10T12:46:30.635Z,6.15
2023-03-10T12:49:15.499Z,6.21
2023-03-10T12:51:47.738Z,6.16
2023-03-10T12:54:45.984Z,6.15
2023-03-10T12:57:20.157Z,6.14
2023-03-10T12:59:57.697Z,6.09
2023-03-10T13:02:33.861Z,6.05
2023-03-10T13:05:06.896Z,6.03
2023-03-10T13:07:36.402Z,6.00
2023-03-10T13:10:06.311Z,6.10
2023-03-10T13:12:43.649Z,6.16
2023-03-10T13:15:23.861Z,6.21
2023-03-10T13:17:55.130Z,6.20
2023-03-10T13:20:24.504Z,6.21
2023-03-10T13:22:56.313Z,6.34
2023-03-10T13:25:26.614Z,6.29
2023-03-10T13:27:57.469Z,6.32
2023-03-10T13:30:27.759Z,6.31
2023-03-10T13:32:58.262Z,6.38
2023-03-10T13:35:26.698Z,6.34
2023-03-10T13:38:15.644Z,6.29
2023-03-10T13:40:47.452Z,6.23
2023-03-10T13:43:33.604Z,6.16
2023-03-10T13:46:03.088Z,6.20
2023-03-10T13:48:33.303Z,6.19
2023-03-10T13:51:09.633Z,6.16
2023-03-10T13:53:37.215Z,6.16
2023-03-10T13:56:21.273Z,6.13
2023-03-10T13:58:51.004Z,6.12
2023-03-10T14:01:21.583Z,6.13
2023-03-10T14:03:54.660Z,6.11
2023-03-10T14:06:22.861Z,6.04
2023-03-10T14:08:51.467Z,5.98
2023-03-10T14:11:36.239Z,5.98
2023-03-10T14:14:05.281Z,5.97
2023-03-10T14:16:51.365Z,5.94
2023-03-10T14:19:38.986Z,5.93
2023-03-10T14:22:23.492Z,5.81
2023-03-10T14:24:51.238Z,5.77
2023-03-10T14:27:20.809Z,5.71
2023-03-10T14:29:51.223Z,5.66
2023-03-10T14:32:19.279Z,5.59
2023-03-10T14:34:47.333Z,5.53
2023-03-10T14:37:15.156Z,5.46
2023-03-10T14:39:43.177Z,5.52
2023-03-10T14:42:21.282Z,5.47
2023-03-10T14:44:50.249Z,5.50
2023-03-10T14:47:18.911Z,5.52
2023-03-10T14:49:47.055Z,5.61
2023-03-10T14:52:16.789Z,5.58
2023-03-10T14:54:45.300Z,5.58
2023-03-10T14:57:15.575Z,5.56
2023-03-10T14:59:44.611Z,5.52
2023-03-10T15:02:21.162Z,5.36
2023-03-10T15:04:48.986Z,5.33
2023-03-10T15:07:17.602Z,5.31
2023-03-10T15:09:45.724Z,5.26
2023-03-10T15:12:15.052Z,5.12
2023-03-10T15:14:47.583Z,5.09
2023-03-10T15:17:15.245Z,5.08
2023-03-10T15:19:42.883Z,5.08
2023-03-10T15:22:10.536Z,5.08
2023-03-10T15:24:38.156Z,4.98
2023-03-10T15:27:05.889Z,4.95
2023-03-10T15:29:33.542Z,4.93
2023-03-10T15:32:02.818Z,4.93
2023-03-10T15:34:30.466Z,4.79
2023-03-10T15:36:58.185Z,4.80
2023-03-10T15:39:31.891Z,4.72
2023-03-10T15:42:00.473Z,4.63
2023-03-10T15:44:28.170Z,4.64
2023-03-10T15:46:55.967Z,4.54
2023-03-10T15:49:25.086Z,4.50
2023-03-10T15:51:52.750Z,4.48
2023-03-10T15:54:20.469Z,4.40
2023-03-10T15:56:48.114Z,4.34
2023-03-10T15:59:16.095Z,4.31
2023-03-10T16:01:43.794Z,4.26
2023-03-10T16:04:11.495Z,4.21
2023-03-10T16:06:40.498Z,4.07
2023-03-10T16:09:09.166Z,4.11
2023-03-10T16:11:36.941Z,4.09
2023-03-10T16:14:05.131Z,3.97
2023-03-10T16:16:32.832Z,3.88
2023-03-10T16:19:00.571Z,3.77
2023-03-10T16:21:28.309Z,3.76
2023-03-10T16:23:58.146Z,3.72
2023-03-10T16:26:25.988Z,3.67
2023-03-10T16:28:55.501Z,3.63
2023-03-10T16:31:26.172Z,3.63
2023-03-10T16:33:55.041Z,3.55
2023-03-10T16:36:24.933Z,3.51
2023-03-10T16:38:53.550Z,3.49
2023-03-10T16:41:23.942Z,3.43
2023-03-10T16:43:51.750Z,3.42
2023-03-10T16:46:25.320Z,3.39
2023-03-10T16:48:55.076Z,3.34
2023-03-10T16:51:28.750Z,3.32
2023-03-10T16:53:58.873Z,3.24
2023-03-10T16:56:29.665Z,3.18
2023-03-10T16:58:57.838Z,3.15
2023-03-10T17:01:25.959Z,3.08
2023-03-10T17:03:54.719Z,3.13
2023-03-10T17:06:25.761Z,3.18
2023-03-10T17:08:54.595Z,3.14
2023-03-10T17:11:25.172Z,3.14
2023-03-10T17:13:56.509Z,3.19
2023-03-10T17:16:28.252Z,3.15
2023-03-10T17:18:57.963Z,3.19
2023-03-10T17:21:28.391Z,3.07
2023-03-10T17:23:56.643Z,3.04
2023-03-10T17:26:24.698Z,2.97
2023-03-10T17:28:54.099Z,2.89
2023-03-10T17:31:26.945Z,2.88
2023-03-10T17:33:55.563Z,2.89
2023-03-10T17:36:23.642Z,2.92
2023-03-10T17:38:53.346Z,2.90
2023-03-10T17:41:21.466Z,2.83
2023-03-10T17:43:49.146Z,2.82
2023-03-10T17:46:20.339Z,2.70
2023-03-10T17:48:48.236Z,2.65
2023-03-10T17:51:17.410Z,2.61
2023-03-10T17:53:45.690Z,2.63
2023-03-10T17:56:14.529Z,2.60
2023-03-10T17:58:43.213Z,2.60
2023-03-10T18:01:12.451Z,2.60
2023-03-10T18:03:41.581Z,2.62
2023-03-10T18:06:14.069Z,2.62
2023-03-10T18:08:42.272Z,2.64
2023-03-10T18:11:10.315Z,2.62
2023-03-10T18:13:38.688Z,2.62
2023-03-10T18:16:07.852Z,2.58
2023-03-10T18:18:35.559Z,2.55
2023-03-10T18:21:04.700Z,2.57
2023-03-10T18:23:32.334Z,2.58
2023-03-10T18:26:00.114Z,2.65
2023-03-10T18:28:27.783Z,2.58
2023-03-10T18:30:55.472Z,2.57
2023-03-10T18:33:23.121Z,2.51
2023-03-10T18:35:50.812Z,2.53
2023-03-10T18:38:21.117Z,2.47
2023-03-10T18:40:48.738Z,2.39
2023-03-10T18:43:16.366Z,2.37
2023-03-10T18:45:44.752Z,2.33
2023-03-10T18:48:12.466Z,2.34
2023-03-10T18:50:40.132Z,2.35
2023-03-10T18:53:07.793Z,2.36
2023-03-10T18:55:36.875Z,2.29
2023-03-10T18:58:04.894Z,2.32
2023-03-10T19:00:32.834Z,2.26
2023-03-10T19:03:00.614Z,2.33
2023-03-10T19:05:28.969Z,2.31
2023-03-10T19:07:56.804Z,2.27
2023-03-10T19:10:24.584Z,2.22
2023-03-10T19:12:53.670Z,2.21
2023-03-10T19:15:21.478Z,2.27
2023-03-10T19:17:49.159Z,2.26
2023-03-10T19:20:18.292Z,2.25
2023-03-10T19:22:50.502Z,2.29
2023-03-10T19:25:18.870Z,2.24
2023-03-10T19:27:48.812Z,2.26
2023-03-10T19:30:19.935Z,2.25
2023-03-10T19:32:48.449Z,2.26
2023-03-10T19:35:18.383Z,2.25
2023-03-10T19:37:47.172Z,2.21
2023-03-10T19:40:17.077Z,2.20
2023-03-10T19:42:45.807Z,2.21
2023-03-10T19:45:15.493Z,2.19
2023-03-10T19:47:45.702Z,2.19
2023-03-10T19:50:15.454Z,2.16
2023-03-10T19:52:46.840Z,2.20
2023-03-10T19:55:19.431Z,2.17
2023-03-10T19:57:48.139Z,2.18
2023-03-10T20:00:20.551Z,2.17
2023-03-10T20:02:49.643Z,2.17
2023-03-10T20:05:17.763Z,2.17
2023-03-10T20:07:46.883Z,2.13
2023-03-10T20:10:16.256Z,2.15
2023-03-10T20:12:44.062Z,2.14
2023-03-10T20:15:12.346Z,2.12
2023-03-10T20:17:40.166Z,2.11
2023-03-10T20:20:11.061Z,2.10
2023-03-10T20:22:40.037Z,2.04
2023-03-10T20:25:09.354Z,2.10
2023-03-10T20:27:37.627Z,2.07
2023-03-10T20:30:07.641Z,2.07
2023-03-10T20:32:35.935Z,2.10
2023-03-10T20:35:04.502Z,2.08
2023-03-10T20:37:35.657Z,2.03
2023-03-10T20:40:05.681Z,2.03
2023-03-10T20:42:33.852Z,2.03
2023-03-10T20:45:02.421Z,2.08
2023-03-10T20:47:30.159Z,2.03
2023-03-10T20:49:58.132Z,2.00
2023-03-10T20:52:25.853Z,2.01
2023-03-10T20:54:55.638Z,2.06
2023-03-10T20:57:23.485Z,2.00
2023-03-10T20:59:51.164Z,1.97
2023-03-10T21:02:19.374Z,1.98
2023-03-10T21:04:47.725Z,1.99
2023-03-10T21:07:15.441Z,1.97
2023-03-10T21:09:44.884Z,1.95
2023-03-10T21:12:18.413Z,1.95
2023-03-10T21:14:46.280Z,1.97
2023-03-10T21:17:14.022Z,1.95
2023-03-10T21:19:41.735Z,1.92
2023-03-10T21:22:09.613Z,1.93
2023-03-10T21:24:37.879Z,1.88
2023-03-10T21:27:05.806Z,1.88
2023-03-10T21:29:36.681Z,1.94
2023-03-10T21:32:04.895Z,1.88
2023-03-10T21:34:33.220Z,1.81
2023-03-10T21:37:01.655Z,1.79
2023-03-10T21:39:29.339Z,1.78
2023-03-10T21:41:56.964Z,1.84
2023-03-10T21:44:24.611Z,1.85
2023-03-10T21:46:53.641Z,1.82
2023-03-10T21:49:21.934Z,1.81
2023-03-10T21:51:49.928Z,1.78
2023-03-10T21:54:17.652Z,1.79
2023-03-10T21:56:45.295Z,1.82
2023-03-10T21:59:12.875Z,1.78
2023-03-10T22:01:40.627Z,1.82
2023-03-10T22:04:10.886Z,1.82
2023-03-10T22:06:38.618Z,1.81
2023-03-10T22:09:06.667Z,1.81
2023-03-10T22:11:34.542Z,1.76
2023-03-10T22:14:02.229Z,1.68
2023-03-10T22:16:29.938Z,1.78
2023-03-10T22:18:57.581Z,1.75
2023-03-10T22:21:26.724Z,1.67
2023-03-10T22:23:54.442Z,1.71
2023-03-10T22:26:22.060Z,1.68
2023-03-10T22:28:49.691Z,1.65
2023-03-10T22:31:18.187Z,1.67
2023-03-10T22:33:45.871Z,1.67
2023-03-10T22:36:14.281Z,1.64
2023-03-10T22:38:43.307Z,1.58
2023-03-10T22:41:12.315Z,1.62
2023-03-10T22:43:40.024Z,1.64
2023-03-10T22:46:09.634Z,1.67
2023-03-10T22:48:37.360Z,1.67
2023-03-10T22:51:07.231Z,1.68
2023-03-10T22:53:37.449Z,1.62
2023-03-10T22:56:07.237Z,1.67
2023-03-10T22:58:34.870Z,1.61
2023-03-10T23:01:02.584Z,1.60
2023-03-10T23:03:30.417Z,1.58
2023-03-10T23:06:00.845Z,1.60
2023-03-10T23:08:28.671Z,1.55
2023-03-10T23:10:56.358Z,1.58
2023-03-10T23:13:25.426Z,1.59
2023-03-10T23:15:53.084Z,1.54
2023-03-10T23:18:21.316Z,1.52
2023-03-10T23:20:49.815Z,1.51
2023-03-10T23:23:19.026Z,1.50
2023-03-10T23:25:48.658Z,1.42
2023-03-10T23:28:17.888Z,1.44
2023-03-10T23:30:48.403Z,1.49
2023-03-10T23:33:17.258Z,1.46
2023-03-10T23:35:46.156Z,1.48
2023-03-10T23:38:13.951Z,1.45
2023-03-10T23:40:41.671Z,1.41
2023-03-10T23:43:09.325Z,1.41
2023-03-10T23:45:38.459Z,1.47
2023-03-10T23:48:11.969Z,1.48
2023-03-10T23:50:42.501Z,1.36
2023-03-10T23:53:10.827Z,1.28
2023-03-10T23:55:40.624Z,1.25
2023-03-10T23:58:08.802Z,1.25
